Victoria Falls, Zimbabwe
Current Conditions -  °F | °C
As of 9:00 PM on Friday 26 Dec 2014 (Local Time) from FBMN Reporting Station
Broken Clouds Broken Clouds  
Wind Chill: 73°   Ceiling: 7000
Heat Index: 73°   Visibility: 6mi
Dew Point: 72°   Wind: 5mph
Humidity: 94%   Direction: 40°NE
Pressure: 29.85"   Gusts: NA
Location:  17.93°S, 25.84°E
Report Text: FBMN 261900Z 04004KT 9999 SCT025 FEW030CB BKN070 23/22 Q1011
Loading
Personal Weather Stations






























Interactive Weather Map New forecast layout! Learn more

10-Day Weather Forecast

Advertisements
Track Severe Weather on mobile